Time;durP1;ratioP1;P1;durP2;ratioP2;P2;SDS_P1;SDS_P2;PMS_P1;PMS_P2;Temp;Humidity;BMP_temperature;BMP_pressure;BME280_temperature;BME280_humidity;BME280_pressure;Samples;Min_cycle;Max_cycle;Signal;HPM_P1;HPM_P2
2022/11/21 00:00:35;;;;;;;82.15;39.50;;;-0.30;99.90;;;;;;2080259;28;20010;-70
2022/11/21 00:01:36;;;;;;;83.30;40.45;;;-0.30;99.90;;;;;;2079976;28;20038;-72
2022/11/21 00:02:36;;;;;;;88.63;40.92;;;-0.30;99.90;;;;;;2080139;28;20124;-70
2022/11/21 00:03:37;;;;;;;87.80;40.70;;;-0.40;99.90;;;;;;2080832;28;20029;-71
2022/11/21 00:04:38;;;;;;;78.78;38.90;;;-0.40;99.90;;;;;;2080217;28;20647;-70
2022/11/21 00:05:41;;;;;;;76.43;37.63;;;-0.30;99.90;;;;;;2080245;28;20033;-72
2022/11/21 00:06:42;;;;;;;77.45;37.88;;;-0.30;99.90;;;;;;2080182;28;20049;-72
2022/11/21 00:07:44;;;;;;;79.43;37.75;;;-0.30;99.90;;;;;;2080152;28;20033;-71
2022/11/21 00:08:45;;;;;;;77.00;36.72;;;-0.30;99.90;;;;;;2080391;28;20430;-72
2022/11/21 00:09:46;;;;;;;72.95;36.28;;;-0.30;99.90;;;;;;2080183;28;20112;-71
2022/11/21 00:10:47;;;;;;;83.43;39.65;;;-0.30;99.90;;;;;;2080195;28;20033;-71
2022/11/21 00:11:50;;;;;;;87.47;40.70;;;-0.30;99.90;;;;;;2080844;28;20033;-70
2022/11/21 00:12:55;;;;;;;81.75;40.05;;;-0.30;99.90;;;;;;2071952;28;20034;-71
2022/11/21 00:13:56;;;;;;;86.13;40.75;;;-0.30;99.90;;;;;;2072596;28;20026;-71
2022/11/21 00:14:57;;;;;;;79.95;38.22;;;-0.30;99.90;;;;;;2080547;28;20029;-71
2022/11/21 00:16:10;;;;;;;86.20;40.85;;;-0.30;99.90;;;;;;2071720;28;20115;-70
2022/11/21 00:17:10;;;;;;;87.05;41.70;;;-0.30;99.90;;;;;;2072803;28;20025;-71
2022/11/21 00:18:11;;;;;;;83.90;39.60;;;-0.30;99.90;;;;;;2071846;28;20026;-72
2022/11/21 00:19:12;;;;;;;79.90;38.33;;;-0.30;99.90;;;;;;2079865;28;20077;-72
2022/11/21 00:20:13;;;;;;;78.35;37.17;;;-0.30;99.90;;;;;;2081127;28;20435;-71
2022/11/21 00:21:17;;;;;;;88.13;41.10;;;-0.30;99.90;;;;;;2080414;28;20101;-71
2022/11/21 00:22:18;;;;;;;80.47;38.80;;;-0.20;99.90;;;;;;2080576;28;20698;-70
2022/11/21 00:23:27;;;;;;;81.07;37.88;;;-0.20;99.90;;;;;;2072084;28;20034;-73
2022/11/21 00:24:27;;;;;;;89.05;42.08;;;-0.20;99.90;;;;;;2072709;28;20808;-71
2022/11/21 00:25:41;;;;;;;84.75;41.05;;;-0.20;99.90;;;;;;2080075;28;20029;-72
2022/11/21 00:26:42;;;;;;;81.38;38.47;;;-0.20;99.90;;;;;;2080156;28;20049;-71
2022/11/21 00:27:43;;;;;;;83.22;38.97;;;-0.20;99.90;;;;;;2080222;28;20029;-73
2022/11/21 00:28:44;;;;;;;83.80;39.75;;;-0.20;99.90;;;;;;2080034;28;20049;-72
2022/11/21 00:29:45;;;;;;;94.22;44.65;;;-0.20;99.90;;;;;;2079085;28;20112;-72
2022/11/21 00:30:45;;;;;;;84.03;39.35;;;-0.20;99.90;;;;;;2079909;28;20585;-72
2022/11/21 00:31:46;;;;;;;91.22;42.08;;;-0.20;99.90;;;;;;2080515;28;20032;-72
2022/11/21 00:32:47;;;;;;;88.88;40.78;;;-0.20;99.90;;;;;;2079868;28;20087;-73
2022/11/21 00:33:48;;;;;;;83.82;40.00;;;-0.20;99.90;;;;;;2080165;28;20037;-72
2022/11/21 00:34:48;;;;;;;84.25;39.00;;;-0.10;99.90;;;;;;2079773;28;20581;-73
2022/11/21 00:35:49;;;;;;;78.97;38.28;;;-0.20;99.90;;;;;;2068907;28;20045;-72
2022/11/21 00:36:49;;;;;;;88.63;41.38;;;-0.10;99.90;;;;;;2080122;28;20033;-72
2022/11/21 00:37:50;;;;;;;86.70;40.13;;;-0.10;99.90;;;;;;2088651;28;20032;-71
2022/11/21 00:38:51;;;;;;;87.85;39.78;;;-0.10;99.90;;;;;;2088103;28;20033;-71
2022/11/21 00:39:52;;;;;;;83.53;38.58;;;-0.10;99.90;;;;;;2080009;28;20139;-71
2022/11/21 00:40:52;;;;;;;79.90;39.03;;;-0.10;99.90;;;;;;2088816;28;20021;-72
2022/11/21 00:41:53;;;;;;;80.13;38.83;;;-0.10;99.90;;;;;;2089560;28;20037;-73
2022/11/21 00:42:54;;;;;;;76.85;37.15;;;0.00;99.90;;;;;;2090431;28;20108;-71
2022/11/21 00:43:54;;;;;;;79.72;37.28;;;0.00;99.90;;;;;;2090973;28;20542;-73
2022/11/21 00:44:55;;;;;;;78.60;37.17;;;0.00;99.90;;;;;;2090353;28;20767;-73
2022/11/21 00:45:57;;;;;;;80.13;37.92;;;0.00;99.90;;;;;;2091604;28;20029;-71
2022/11/21 00:46:58;;;;;;;75.90;35.80;;;0.00;99.90;;;;;;2091256;28;20043;-73
2022/11/21 00:47:58;;;;;;;77.22;36.92;;;0.00;99.90;;;;;;2090304;28;20033;-72
2022/11/21 00:48:59;;;;;;;82.88;38.47;;;0.00;99.90;;;;;;2089489;28;20033;-72
2022/11/21 00:50:00;;;;;;;76.75;37.47;;;0.00;99.90;;;;;;2088435;28;20021;-70
2022/11/21 00:51:01;;;;;;;78.07;37.25;;;0.00;99.90;;;;;;2088135;28;20040;-72
2022/11/21 00:52:01;;;;;;;85.10;39.95;;;0.00;99.90;;;;;;2088527;28;20395;-70
2022/11/21 00:53:02;;;;;;;79.47;37.90;;;0.00;99.90;;;;;;2088635;28;20048;-71
2022/11/21 00:54:03;;;;;;;77.90;37.60;;;0.00;99.90;;;;;;2089163;28;20050;-71
2022/11/21 00:55:04;;;;;;;80.53;38.50;;;0.00;99.90;;;;;;2089522;28;20037;-73
2022/11/21 00:56:04;;;;;;;81.43;38.40;;;0.00;99.90;;;;;;2089597;28;20036;-72
2022/11/21 00:57:05;;;;;;;78.63;37.75;;;0.00;99.90;;;;;;2080814;28;20037;-71
2022/11/21 00:58:06;;;;;;;79.47;37.58;;;0.00;99.90;;;;;;2081306;28;20033;-72
2022/11/21 00:59:06;;;;;;;77.55;36.72;;;0.10;99.90;;;;;;2089202;28;20503;-72
2022/11/21 01:00:08;;;;;;;82.15;38.25;;;0.10;99.90;;;;;;2089046;28;20755;-71
2022/11/21 01:01:11;;;;;;;81.05;39.97;;;0.10;99.90;;;;;;2089249;28;20032;-71
2022/11/21 01:02:12;;;;;;;78.60;37.88;;;0.00;99.90;;;;;;2089926;28;20104;-72
2022/11/21 01:03:13;;;;;;;81.07;39.08;;;0.10;99.90;;;;;;2088705;28;20118;-69
2022/11/21 01:04:14;;;;;;;79.55;37.97;;;0.10;99.90;;;;;;2088920;28;20040;-69
2022/11/21 01:05:15;;;;;;;77.07;37.20;;;0.10;99.90;;;;;;2089817;28;20037;-70
2022/11/21 01:06:15;;;;;;;74.15;35.72;;;0.10;99.90;;;;;;2087616;28;20029;-73
2022/11/21 01:07:16;;;;;;;76.55;36.67;;;0.10;99.90;;;;;;2082569;28;20253;-71
2022/11/21 01:08:17;;;;;;;77.20;37.50;;;0.10;99.90;;;;;;2083179;28;20029;-71
2022/11/21 01:09:17;;;;;;;76.65;36.63;;;0.10;99.90;;;;;;2082506;28;20041;-69
2022/11/21 01:10:18;;;;;;;77.30;37.03;;;0.10;99.90;;;;;;2082192;28;20506;-72
2022/11/21 01:11:20;;;;;;;77.53;36.92;;;0.20;99.90;;;;;;2066940;28;20488;-72
2022/11/21 01:12:21;;;;;;;76.63;38.10;;;0.20;99.90;;;;;;2066548;28;20171;-72
2022/11/21 01:13:22;;;;;;;75.53;36.65;;;0.20;99.90;;;;;;2074026;28;20056;-71
2022/11/21 01:14:23;;;;;;;77.57;36.72;;;0.20;99.90;;;;;;2080589;28;20670;-70
2022/11/21 01:15:24;;;;;;;74.35;37.00;;;0.20;99.90;;;;;;2080261;28;20057;-69
2022/11/21 01:16:27;;;;;;;79.80;37.50;;;0.20;99.90;;;;;;2080171;28;20655;-69
2022/11/21 01:17:30;;;;;;;78.05;38.47;;;0.20;99.90;;;;;;2079967;28;20033;-69
2022/11/21 01:18:31;;;;;;;83.18;39.67;;;0.20;99.90;;;;;;2079801;28;20021;-70
2022/11/21 01:19:32;;;;;;;82.45;39.00;;;0.20;99.90;;;;;;2079588;28;20768;-69
2022/11/21 01:20:32;;;;;;;76.13;37.47;;;0.20;99.90;;;;;;2080338;28;20509;-69
2022/11/21 01:21:33;;;;;;;75.97;36.55;;;0.20;99.90;;;;;;2079572;28;20034;-70
2022/11/21 01:22:34;;;;;;;79.70;38.05;;;0.20;99.90;;;;;;2079776;28;20136;-70
2022/11/21 01:23:34;;;;;;;76.10;36.22;;;0.20;99.90;;;;;;2080514;28;20108;-69
2022/11/21 01:24:35;;;;;;;82.88;39.83;;;0.30;99.90;;;;;;2080231;28;20032;-70
2022/11/21 01:25:36;;;;;;;75.43;37.17;;;0.30;99.90;;;;;;2079981;28;20048;-70
2022/11/21 01:26:37;;;;;;;80.82;38.35;;;0.30;99.90;;;;;;2079664;28;20389;-71
2022/11/21 01:27:37;;;;;;;76.13;37.67;;;0.30;99.90;;;;;;2079605;28;20029;-72
2022/11/21 01:28:38;;;;;;;76.80;36.20;;;0.30;99.90;;;;;;2079318;28;20100;-70
2022/11/21 01:29:39;;;;;;;74.68;36.95;;;0.30;99.90;;;;;;2079848;28;20025;-71
2022/11/21 01:30:39;;;;;;;75.80;36.20;;;0.30;99.90;;;;;;2080191;28;20026;-71
2022/11/21 01:31:40;;;;;;;75.40;36.83;;;0.30;99.90;;;;;;2078094;28;20036;-71
2022/11/21 01:32:41;;;;;;;73.43;35.72;;;0.30;99.90;;;;;;2088447;28;20029;-71
2022/11/21 01:33:42;;;;;;;73.75;35.65;;;0.30;99.90;;;;;;2079336;28;20099;-71
2022/11/21 01:34:43;;;;;;;81.25;38.35;;;0.30;99.90;;;;;;2079446;28;20049;-70
2022/11/21 01:35:43;;;;;;;83.05;39.72;;;0.30;99.90;;;;;;2081330;28;20671;-70
2022/11/21 01:36:44;;;;;;;77.70;37.38;;;0.40;99.90;;;;;;2071303;28;20120;-71
2022/11/21 01:37:48;;;;;;;77.78;37.92;;;0.40;99.90;;;;;;2079381;28;20091;-70
2022/11/21 01:38:54;;;;;;;81.40;38.92;;;0.40;99.90;;;;;;2079368;28;20025;-70
2022/11/21 01:39:54;;;;;;;77.72;37.22;;;0.40;99.90;;;;;;2079238;28;20030;-70
2022/11/21 01:40:55;;;;;;;79.95;38.25;;;0.40;99.90;;;;;;2079368;28;20511;-71
2022/11/21 01:41:56;;;;;;;84.05;39.55;;;0.40;99.90;;;;;;2080029;28;20037;-71
2022/11/21 01:43:02;;;;;;;80.35;38.58;;;0.40;99.90;;;;;;2079843;28;20431;-71
2022/11/21 01:44:12;;;;;;;78.65;38.10;;;0.40;99.90;;;;;;2079760;28;20190;-70
2022/11/21 01:45:50;;;;;;;77.85;37.20;;;0.40;99.90;;;;;;2080029;28;20048;-71
2022/11/21 01:46:52;;;;;;;82.70;38.67;;;0.40;99.90;;;;;;2079980;28;20116;-71
2022/11/21 01:47:52;;;;;;;82.85;39.03;;;0.40;99.90;;;;;;2079297;28;20030;-70
2022/11/21 01:49:03;;;;;;;80.72;39.22;;;0.50;99.90;;;;;;2078726;28;20033;-70
2022/11/21 01:50:04;;;;;;;85.07;39.75;;;0.50;99.90;;;;;;2079897;28;20105;-70
2022/11/21 01:51:20;;;;;;;79.03;38.08;;;0.40;99.90;;;;;;2079493;28;20084;-70
2022/11/21 01:52:30;;;;;;;79.68;37.63;;;0.50;99.90;;;;;;2079647;28;20083;-69
2022/11/21 01:53:32;;;;;;;80.57;37.40;;;0.50;99.90;;;;;;2079229;28;20116;-70
2022/11/21 01:54:32;;;;;;;82.55;38.08;;;0.50;99.90;;;;;;2078964;28;20112;-70
2022/11/21 01:55:34;;;;;;;83.53;39.05;;;0.50;99.90;;;;;;2080058;28;20029;-69
2022/11/21 01:56:43;;;;;;;78.75;37.55;;;0.50;99.90;;;;;;2079775;28;20032;-70
2022/11/21 01:57:47;;;;;;;74.40;36.17;;;0.50;99.90;;;;;;2079909;28;20094;-70
2022/11/21 01:58:49;;;;;;;77.10;36.35;;;0.50;99.90;;;;;;2079537;28;20070;-71
2022/11/21 02:00:07;;;;;;;70.40;35.00;;;0.60;99.90;;;;;;2080005;28;20034;-71
2022/11/21 02:01:08;;;;;;;75.07;35.50;;;0.60;99.90;;;;;;2081112;28;20036;-72
2022/11/21 02:02:16;;;;;;;72.45;34.15;;;0.60;99.90;;;;;;2081098;28;20036;-73
2022/11/21 02:03:21;;;;;;;69.85;33.78;;;0.60;99.90;;;;;;2082156;28;20121;-71
2022/11/21 02:04:27;;;;;;;71.57;34.28;;;0.60;99.90;;;;;;2074800;28;20037;-72
2022/11/21 02:05:31;;;;;;;71.00;34.05;;;0.60;99.90;;;;;;2074899;28;20079;-71
2022/11/21 02:06:36;;;;;;;70.70;34.90;;;0.70;99.90;;;;;;2082021;28;20037;-70
2022/11/21 02:07:41;;;;;;;70.20;33.58;;;0.70;99.90;;;;;;2080444;28;20038;-72
2022/11/21 02:08:43;;;;;;;69.55;33.20;;;0.70;99.90;;;;;;2080486;28;20025;-72
2022/11/21 02:09:47;;;;;;;64.95;32.15;;;0.70;99.90;;;;;;2071593;28;20030;-72
2022/11/21 02:11:01;;;;;;;70.28;32.90;;;0.70;99.90;;;;;;2063402;28;20070;-72
2022/11/21 02:12:25;;;;;;;71.78;33.35;;;0.80;99.90;;;;;;2065715;28;20035;-72
2022/11/21 02:13:26;;;;;;;69.07;33.05;;;0.80;99.90;;;;;;2071729;28;20025;-72
2022/11/21 02:14:28;;;;;;;74.70;33.58;;;0.80;99.90;;;;;;2071577;28;20535;-71
2022/11/21 02:15:29;;;;;;;70.55;33.50;;;0.80;99.90;;;;;;2072302;28;20489;-72
2022/11/21 02:16:30;;;;;;;70.43;34.22;;;0.80;99.90;;;;;;2071851;28;20046;-72
2022/11/21 02:17:32;;;;;;;70.13;33.53;;;0.80;99.90;;;;;;2071965;28;20041;-71
2022/11/21 02:18:32;;;;;;;69.53;33.92;;;0.90;99.90;;;;;;2071677;28;20025;-72
2022/11/21 02:20:06;;;;;;;63.15;31.52;;;0.90;99.90;;;;;;2071292;28;20112;-72
2022/11/21 02:21:38;;;;;;;70.60;32.72;;;0.90;99.90;;;;;;2071306;28;20516;-72
2022/11/21 02:22:53;;;;;;;65.28;30.83;;;0.90;99.90;;;;;;2071396;28;20393;-72
2022/11/21 02:24:13;;;;;;;64.63;30.33;;;0.90;99.90;;;;;;2071095;28;20025;-72
2022/11/21 02:25:23;;;;;;;68.82;32.65;;;0.90;99.90;;;;;;2072023;28;20030;-71
2022/11/21 02:26:25;;;;;;;70.35;32.58;;;0.90;99.90;;;;;;2071887;28;20459;-71
2022/11/21 02:27:26;;;;;;;67.60;32.60;;;0.90;99.90;;;;;;2071140;28;20463;-71
2022/11/21 02:28:27;;;;;;;69.97;33.47;;;1.00;99.90;;;;;;2078859;28;20021;-71
2022/11/21 02:29:29;;;;;;;67.75;32.63;;;1.00;99.90;;;;;;2086722;28;20170;-71
2022/11/21 02:30:34;;;;;;;64.75;31.60;;;1.00;99.90;;;;;;2080232;28;20014;-71
2022/11/21 02:31:34;;;;;;;63.67;31.27;;;1.00;99.90;;;;;;2079667;28;20396;-71
2022/11/21 02:32:40;;;;;;;75.22;35.03;;;1.00;99.90;;;;;;2079648;28;20022;-71
2022/11/21 02:33:41;;;;;;;69.13;33.60;;;1.00;99.90;;;;;;2079113;28;20029;-70
2022/11/21 02:34:42;;;;;;;71.47;33.28;;;1.00;99.90;;;;;;2078800;28;20408;-71
2022/11/21 02:35:43;;;;;;;71.88;34.28;;;1.00;99.90;;;;;;2079606;28;20045;-71
2022/11/21 02:36:46;;;;;;;65.22;31.83;;;1.00;99.90;;;;;;2079694;28;20057;-71
2022/11/21 02:37:59;;;;;;;62.55;30.75;;;1.00;99.90;;;;;;2079539;28;20029;-71
2022/11/21 02:39:01;;;;;;;60.35;30.75;;;1.00;99.90;;;;;;2078646;28;20123;-70
2022/11/21 02:40:08;;;;;;;71.00;34.00;;;1.00;99.90;;;;;;2078989;28;20112;-71
2022/11/21 02:41:25;;;;;;;63.92;31.13;;;1.00;99.90;;;;;;2080971;28;20036;-70
2022/11/21 02:42:40;;;;;;;64.47;30.98;;;1.00;99.90;;;;;;2080979;28;20041;-70
2022/11/21 02:44:28;;;;;;;59.60;30.10;;;1.00;99.90;;;;;;2074425;28;20089;-71
2022/11/21 02:45:43;;;;;;;66.25;30.85;;;1.10;99.90;;;;;;2077281;28;20052;-71
2022/11/21 02:46:49;;;;;;;73.18;33.67;;;1.10;99.90;;;;;;2081475;28;20483;-71
2022/11/21 02:47:53;;;;;;;68.70;32.78;;;1.10;99.90;;;;;;2081363;28;20443;-70
2022/11/21 02:48:56;;;;;;;72.40;33.88;;;1.10;99.90;;;;;;2080331;28;20127;-70
2022/11/21 02:50:13;;;;;;;70.80;32.92;;;1.10;99.90;;;;;;2072727;28;20033;-71
2022/11/21 02:51:13;;;;;;;73.13;33.88;;;1.10;99.90;;;;;;2080813;28;20029;-71
2022/11/21 02:52:14;;;;;;;66.47;31.85;;;1.10;99.90;;;;;;2080597;28;20029;-71
2022/11/21 02:53:17;;;;;;;69.68;33.28;;;1.10;99.90;;;;;;2080903;28;20033;-70
2022/11/21 02:54:17;;;;;;;69.65;33.35;;;1.10;99.90;;;;;;2081119;28;20029;-69
2022/11/21 02:55:18;;;;;;;66.20;32.10;;;1.10;99.90;;;;;;2081520;28;20041;-69
2022/11/21 02:56:19;;;;;;;63.25;31.17;;;1.10;99.90;;;;;;2081029;28;20053;-69
2022/11/21 02:57:19;;;;;;;59.00;29.45;;;1.10;99.90;;;;;;2081462;28;20201;-69
2022/11/21 02:58:20;;;;;;;56.67;27.88;;;1.10;99.90;;;;;;2081662;28;20044;-70
2022/11/21 02:59:21;;;;;;;60.05;29.63;;;1.10;99.90;;;;;;2081689;28;20091;-70
2022/11/21 03:00:22;;;;;;;58.25;28.20;;;1.10;99.90;;;;;;2082229;28;20079;-70
2022/11/21 03:01:22;;;;;;;61.15;30.52;;;1.10;99.90;;;;;;2082257;28;20036;-70
2022/11/21 03:02:23;;;;;;;63.72;31.33;;;1.20;99.90;;;;;;2081864;28;20042;-70
2022/11/21 03:03:24;;;;;;;69.45;33.03;;;1.20;99.90;;;;;;2080675;28;20100;-70
2022/11/21 03:04:25;;;;;;;60.47;29.60;;;1.20;99.90;;;;;;2080297;28;20040;-70
2022/11/21 03:05:26;;;;;;;59.35;29.48;;;1.20;99.90;;;;;;2080502;28;20399;-70
2022/11/21 03:06:27;;;;;;;56.45;28.58;;;1.20;99.90;;;;;;2080507;28;20399;-70
2022/11/21 03:07:28;;;;;;;56.33;28.42;;;1.20;99.90;;;;;;2081441;28;20025;-70
2022/11/21 03:08:28;;;;;;;55.33;28.20;;;1.20;99.90;;;;;;2081279;28;20501;-70
2022/11/21 03:09:29;;;;;;;52.17;26.75;;;1.20;99.90;;;;;;2080532;28;20030;-70
2022/11/21 03:10:30;;;;;;;57.85;28.83;;;1.20;99.90;;;;;;2081107;28;20095;-71
2022/11/21 03:11:30;;;;;;;61.60;31.27;;;1.20;99.90;;;;;;2080675;28;20018;-69
2022/11/21 03:12:31;;;;;;;64.93;31.88;;;1.20;99.90;;;;;;2072298;28;20777;-70
2022/11/21 03:13:32;;;;;;;64.57;32.50;;;1.30;99.90;;;;;;2080519;28;20415;-70
2022/11/21 03:14:34;;;;;;;65.85;31.98;;;1.30;99.90;;;;;;2080927;28;20017;-69
2022/11/21 03:15:35;;;;;;;69.95;33.38;;;1.30;99.90;;;;;;2081278;28;20119;-69
2022/11/21 03:16:36;;;;;;;65.18;31.98;;;1.30;99.90;;;;;;2081282;28;20740;-70
2022/11/21 03:17:37;;;;;;;66.90;32.63;;;1.30;99.90;;;;;;2081127;28;20025;-71
2022/11/21 03:18:38;;;;;;;58.70;29.85;;;1.30;99.90;;;;;;2080488;28;20523;-70
2022/11/21 03:19:38;;;;;;;60.42;29.90;;;1.30;99.90;;;;;;2080125;28;20104;-70
2022/11/21 03:20:39;;;;;;;55.53;27.85;;;1.30;99.90;;;;;;2081138;28;20017;-70
2022/11/21 03:21:40;;;;;;;55.17;28.42;;;1.30;99.90;;;;;;2081154;28;20025;-70
2022/11/21 03:22:40;;;;;;;55.65;28.40;;;1.30;99.90;;;;;;2081145;28;20101;-70
2022/11/21 03:23:41;;;;;;;53.97;27.98;;;1.30;99.90;;;;;;2081324;28;20435;-70
2022/11/21 03:24:42;;;;;;;56.03;28.40;;;1.30;99.90;;;;;;2074898;28;20113;-71
2022/11/21 03:25:42;;;;;;;57.58;28.95;;;1.30;99.90;;;;;;2089200;28;20029;-70
2022/11/21 03:26:43;;;;;;;63.92;30.13;;;1.40;99.90;;;;;;2087339;28;20048;-70
2022/11/21 03:27:44;;;;;;;57.30;29.15;;;1.30;99.90;;;;;;2080711;28;20057;-69
2022/11/21 03:28:44;;;;;;;57.70;28.80;;;1.30;99.90;;;;;;2080512;28;20029;-70
2022/11/21 03:29:45;;;;;;;56.00;28.05;;;1.40;99.90;;;;;;2079992;28;20029;-70
2022/11/21 03:30:46;;;;;;;55.83;27.98;;;1.40;99.90;;;;;;2081003;28;20078;-69
2022/11/21 03:31:47;;;;;;;52.03;27.52;;;1.40;99.90;;;;;;2081234;28;20038;-69
2022/11/21 03:32:47;;;;;;;54.08;27.73;;;1.30;99.90;;;;;;2080810;28;20025;-71
2022/11/21 03:33:48;;;;;;;56.25;27.73;;;1.30;99.90;;;;;;2081077;28;20455;-70
2022/11/21 03:34:49;;;;;;;56.67;29.17;;;1.30;99.90;;;;;;2080910;28;20033;-71
2022/11/21 03:35:50;;;;;;;58.25;29.48;;;1.30;99.90;;;;;;2080313;28;20120;-72
2022/11/21 03:36:50;;;;;;;51.55;27.88;;;1.30;99.90;;;;;;2080385;28;20135;-69
2022/11/21 03:37:51;;;;;;;54.47;28.80;;;1.40;99.90;;;;;;2081007;28;20083;-69
2022/11/21 03:38:55;;;;;;;57.53;29.10;;;1.40;99.90;;;;;;2080416;28;20030;-72
2022/11/21 03:39:56;;;;;;;54.70;27.98;;;1.40;99.90;;;;;;2080835;28;20033;-69
2022/11/21 03:41:01;;;;;;;57.13;29.02;;;1.40;99.90;;;;;;2080775;28;20040;-71
2022/11/21 03:42:02;;;;;;;50.97;26.15;;;1.40;99.90;;;;;;2080839;28;20116;-71
2022/11/21 03:43:06;;;;;;;52.00;26.60;;;1.40;99.90;;;;;;2080845;28;20037;-70
2022/11/21 03:44:09;;;;;;;52.38;26.75;;;1.40;99.90;;;;;;2080451;28;20034;-70
2022/11/21 03:45:10;;;;;;;54.70;28.15;;;1.40;99.90;;;;;;2080677;28;20442;-71
2022/11/21 03:46:11;;;;;;;53.70;27.10;;;1.40;99.90;;;;;;2080671;28;20103;-70
2022/11/21 03:47:11;;;;;;;52.58;26.73;;;1.40;99.90;;;;;;2080614;28;20076;-69
2022/11/21 03:48:14;;;;;;;50.42;25.90;;;1.40;99.90;;;;;;2080776;28;20029;-69
2022/11/21 03:49:15;;;;;;;48.10;24.35;;;1.40;99.90;;;;;;2071380;28;20022;-70
2022/11/21 03:50:19;;;;;;;50.20;25.92;;;1.40;99.90;;;;;;2072015;28;20084;-69
2022/11/21 03:51:20;;;;;;;49.22;25.35;;;1.40;99.90;;;;;;2080509;28;20100;-70
2022/11/21 03:52:21;;;;;;;50.72;26.08;;;1.40;99.90;;;;;;2080479;28;20033;-71
2022/11/21 03:53:21;;;;;;;50.70;25.45;;;1.40;99.90;;;;;;2081202;28;20092;-72
2022/11/21 03:54:22;;;;;;;52.63;26.70;;;1.40;99.90;;;;;;2081220;28;20025;-70
2022/11/21 03:55:23;;;;;;;47.78;25.55;;;1.40;99.90;;;;;;2080952;28;20057;-70
2022/11/21 03:56:25;;;;;;;52.45;26.40;;;1.40;99.90;;;;;;2072546;28;20072;-69
2022/11/21 03:57:25;;;;;;;54.60;27.23;;;1.40;99.90;;;;;;2072477;28;20026;-70
2022/11/21 03:58:26;;;;;;;50.55;26.35;;;1.40;99.90;;;;;;2080193;28;20033;-70
2022/11/21 03:59:27;;;;;;;46.95;24.70;;;1.40;99.90;;;;;;2080028;28;20399;-70
2022/11/21 04:00:27;;;;;;;49.95;25.92;;;1.50;99.90;;;;;;2080664;28;20026;-71
2022/11/21 04:01:28;;;;;;;47.75;25.30;;;1.40;99.90;;;;;;2080622;28;20032;-70
2022/11/21 04:02:28;;;;;;;49.38;25.58;;;1.50;99.90;;;;;;2080689;28;20029;-70
2022/11/21 04:03:29;;;;;;;48.60;25.23;;;1.50;99.90;;;;;;2080197;28;20448;-71
2022/11/21 04:04:30;;;;;;;46.33;23.85;;;1.50;99.90;;;;;;2079667;28;20030;-70
2022/11/21 04:05:31;;;;;;;46.42;24.67;;;1.50;99.90;;;;;;2080546;28;20173;-69
2022/11/21 04:06:31;;;;;;;46.97;24.67;;;1.50;99.90;;;;;;2079918;28;20036;-69
2022/11/21 04:07:32;;;;;;;46.08;24.42;;;1.50;99.90;;;;;;2079980;28;20067;-70
2022/11/21 04:08:33;;;;;;;45.83;24.50;;;1.60;99.90;;;;;;2080513;28;20084;-70
2022/11/21 04:09:33;;;;;;;45.15;24.13;;;1.50;99.90;;;;;;2079260;28;20025;-70
2022/11/21 04:10:34;;;;;;;47.63;24.63;;;1.60;99.90;;;;;;2079849;28;20581;-69
2022/11/21 04:11:36;;;;;;;45.78;23.83;;;1.60;99.90;;;;;;2072379;28;20026;-70
2022/11/21 04:12:37;;;;;;;42.67;23.55;;;1.60;99.90;;;;;;2072316;28;20022;-69
2022/11/21 04:13:37;;;;;;;44.72;23.80;;;1.60;99.90;;;;;;2072496;28;20049;-70
2022/11/21 04:14:38;;;;;;;45.22;23.80;;;1.60;99.90;;;;;;2079731;28;20542;-70
2022/11/21 04:15:42;;;;;;;42.67;23.10;;;1.60;99.90;;;;;;2080105;28;20087;-69
2022/11/21 04:16:42;;;;;;;41.85;22.85;;;1.60;99.90;;;;;;2072288;28;20026;-71
2022/11/21 04:17:43;;;;;;;40.72;22.02;;;1.60;99.90;;;;;;2072337;28;20129;-71
2022/11/21 04:18:44;;;;;;;42.90;22.67;;;1.60;99.90;;;;;;2072233;28;20108;-71
2022/11/21 04:19:44;;;;;;;40.88;21.80;;;1.60;99.90;;;;;;2074833;28;20033;-71
2022/11/21 04:20:45;;;;;;;39.83;21.02;;;1.70;99.90;;;;;;2079511;28;20052;-71
2022/11/21 04:21:46;;;;;;;36.83;20.55;;;1.60;99.90;;;;;;2093206;28;20037;-70
2022/11/21 04:22:47;;;;;;;40.17;21.60;;;1.70;99.90;;;;;;2092565;28;20093;-70
2022/11/21 04:23:47;;;;;;;38.97;20.77;;;1.60;99.90;;;;;;2094257;28;20059;-71
2022/11/21 04:24:48;;;;;;;42.05;21.73;;;1.70;99.90;;;;;;2094730;28;20037;-72
2022/11/21 04:25:49;;;;;;;38.95;21.00;;;1.70;99.90;;;;;;2095372;28;20028;-72
2022/11/21 04:26:53;;;;;;;41.75;22.98;;;1.70;99.90;;;;;;2085395;28;20477;-71
2022/11/21 04:27:57;;;;;;;42.00;22.52;;;1.70;99.90;;;;;;2090559;28;20033;-69
2022/11/21 04:29:00;;;;;;;43.60;23.23;;;1.70;99.90;;;;;;2087942;28;20059;-71
2022/11/21 04:30:01;;;;;;;43.72;22.70;;;1.70;99.90;;;;;;2088417;28;20025;-70
2022/11/21 04:31:06;;;;;;;40.90;22.08;;;1.80;99.90;;;;;;2088877;28;20033;-71
2022/11/21 04:32:07;;;;;;;42.03;22.67;;;1.70;99.90;;;;;;2088243;28;20098;-69
2022/11/21 04:33:08;;;;;;;38.75;20.75;;;1.80;99.90;;;;;;2088186;28;20049;-70
2022/11/21 04:34:09;;;;;;;41.63;21.92;;;1.70;99.90;;;;;;2088282;28;20108;-69
2022/11/21 04:35:10;;;;;;;37.20;20.75;;;1.70;99.90;;;;;;2088848;28;20032;-70
2022/11/21 04:36:10;;;;;;;37.63;20.73;;;1.70;99.90;;;;;;2088010;28;20483;-69
2022/11/21 04:37:11;;;;;;;34.75;20.15;;;1.80;99.90;;;;;;2088058;28;20082;-69
2022/11/21 04:38:13;;;;;;;35.60;20.17;;;1.80;99.90;;;;;;2087993;28;20036;-69
2022/11/21 04:39:13;;;;;;;34.10;19.40;;;1.80;99.90;;;;;;2087765;28;20025;-70
2022/11/21 04:40:23;;;;;;;41.35;21.58;;;1.80;99.90;;;;;;2088719;28;20380;-71
2022/11/21 04:41:24;;;;;;;38.90;21.58;;;1.80;99.90;;;;;;2088683;28;20499;-70
2022/11/21 04:42:24;;;;;;;37.97;20.90;;;1.80;99.90;;;;;;2088557;28;20020;-71
2022/11/21 04:43:25;;;;;;;36.42;20.33;;;1.80;99.90;;;;;;2088595;28;20395;-70
2022/11/21 04:44:27;;;;;;;34.25;19.65;;;1.80;99.90;;;;;;2088292;28;20685;-70
2022/11/21 04:45:28;;;;;;;37.63;20.33;;;1.80;99.90;;;;;;2088427;28;20033;-71
2022/11/21 04:46:28;;;;;;;36.55;20.70;;;1.80;99.90;;;;;;2087951;28;20741;-71
2022/11/21 04:47:29;;;;;;;34.90;19.58;;;1.80;99.90;;;;;;2088042;28;20021;-70
2022/11/21 04:48:31;;;;;;;36.10;19.50;;;1.80;99.90;;;;;;2087840;28;20021;-70
2022/11/21 04:49:32;;;;;;;34.35;19.58;;;1.80;99.90;;;;;;2079399;28;20034;-70
2022/11/21 04:50:32;;;;;;;33.20;18.52;;;1.80;99.90;;;;;;2087885;28;20020;-71
2022/11/21 04:51:33;;;;;;;36.58;19.40;;;1.80;99.90;;;;;;2088483;28;20372;-70
2022/11/21 04:52:34;;;;;;;33.38;18.52;;;1.90;99.90;;;;;;2088425;28;20099;-70
2022/11/21 04:53:35;;;;;;;36.33;19.92;;;1.90;99.90;;;;;;2088556;28;20491;-69
2022/11/21 04:54:35;;;;;;;33.60;19.05;;;1.90;99.90;;;;;;2088289;28;20125;-71
2022/11/21 04:55:36;;;;;;;32.63;18.67;;;1.90;99.90;;;;;;2088585;28;20021;-71
2022/11/21 04:56:37;;;;;;;33.17;18.65;;;1.90;99.90;;;;;;2088512;28;20024;-72
2022/11/21 04:57:37;;;;;;;34.80;19.48;;;1.90;99.90;;;;;;2087719;28;20029;-70
2022/11/21 04:58:38;;;;;;;35.17;19.35;;;1.90;99.90;;;;;;2087806;28;20025;-70
2022/11/21 04:59:38;;;;;;;36.65;20.63;;;1.90;99.90;;;;;;2088037;28;20474;-70
2022/11/21 05:00:39;;;;;;;40.38;22.00;;;1.90;99.90;;;;;;2088531;28;20020;-70
2022/11/21 05:01:40;;;;;;;46.85;24.33;;;1.90;99.90;;;;;;2088524;28;20055;-71
2022/11/21 05:02:41;;;;;;;42.53;23.58;;;1.90;99.90;;;;;;2088539;28;20528;-71
2022/11/21 05:03:41;;;;;;;41.90;22.48;;;1.90;99.90;;;;;;2087923;28;20057;-70
2022/11/21 05:04:42;;;;;;;40.70;21.85;;;1.90;99.90;;;;;;2088508;28;20116;-71
2022/11/21 05:05:43;;;;;;;42.92;22.60;;;1.90;99.90;;;;;;2089096;28;20029;-70
2022/11/21 05:06:43;;;;;;;42.45;23.95;;;2.00;99.90;;;;;;2082380;28;20037;-71
2022/11/21 05:07:44;;;;;;;42.72;23.55;;;1.90;99.90;;;;;;2079701;28;20551;-71
2022/11/21 05:08:45;;;;;;;40.85;21.88;;;1.90;99.90;;;;;;2079257;28;20029;-71
2022/11/21 05:09:45;;;;;;;39.97;22.13;;;1.90;99.90;;;;;;2079662;28;20472;-71
2022/11/21 05:13:25;;;;;;;38.72;21.05;;;1.90;99.90;;;;;;2080139;28;20659;-70
2022/11/21 05:14:26;;;;;;;38.15;21.58;;;1.90;99.90;;;;;;2079734;28;20044;-70
2022/11/21 05:15:27;;;;;;;43.45;23.35;;;1.90;99.90;;;;;;2080125;28;20770;-70
2022/11/21 05:16:27;;;;;;;43.72;23.40;;;1.90;99.90;;;;;;2077459;28;20033;-72
2022/11/21 05:17:28;;;;;;;40.83;23.25;;;1.90;99.90;;;;;;2078610;28;20029;-71
2022/11/21 05:18:29;;;;;;;45.38;23.90;;;1.90;99.90;;;;;;2086925;28;20029;-69
2022/11/21 05:19:30;;;;;;;40.83;22.73;;;2.00;99.90;;;;;;2086891;28;20031;-71
2022/11/21 05:20:31;;;;;;;39.22;22.05;;;2.00;99.90;;;;;;2083105;28;20565;-70
2022/11/21 05:21:31;;;;;;;42.92;22.98;;;2.00;99.90;;;;;;2079257;28;20200;-71
2022/11/21 05:22:32;;;;;;;39.75;22.75;;;2.00;99.90;;;;;;2080126;28;20472;-70
2022/11/21 05:23:33;;;;;;;38.72;21.92;;;2.00;99.90;;;;;;2080254;28;20033;-71